METAR Data

Data at: 1014 UTC 21 Apr 2021

METAR for:KORH (Worcester Muni, MA, US)
Text:KORH 210954Z AUTO 17003KT 10SM BKN075 09/03 A2981 RMK AO2 SLP094 T00890028
Temperature: 8.9°C ( 48°F)
Dewpoint: 2.8°C ( 37°F) [RH = 66%]
Pressure (altimeter):29.81 inches Hg (1009.6 mb) [Sea level pressure: 1009.4 mb]
Winds:from the S (170 degrees) at 3 MPH (3 knots; 1.5 m/s)
Visibility:10 or more sm (16+ km)
Ceiling:7500 feet AGL
Clouds: broken clouds at 7500 feet AGL
QC Flag:automated observation with no human augmentation